Time;durP1;ratioP1;P1;durP2;ratioP2;P2;SDS_P1;SDS_P2;PMS_P1;PMS_P2;Temp;Humidity;BMP_temperature;BMP_pressure;BME280_temperature;BME280_humidity;BME280_pressure;Samples;Min_cycle;Max_cycle;Signal;HPM_P1;HPM_P2
2021/12/18 00:02:08;;;;;;;16.60;10.55;;;;;;;9.16;100.00;104097.84;5064580;28;20418;-71
2021/12/18 00:04:34;;;;;;;14.02;10.07;;;;;;;9.11;100.00;104094.84;5063337;28;20021;-70
2021/12/18 00:06:59;;;;;;;13.68;9.63;;;;;;;9.06;100.00;104092.69;5041611;28;20033;-70
2021/12/18 00:09:26;;;;;;;15.48;9.52;;;;;;;9.19;100.00;104089.25;5046510;28;20533;-70
2021/12/18 00:11:53;;;;;;;13.95;10.25;;;;;;;9.15;100.00;104097.00;5042637;28;20071;-69
2021/12/18 00:14:19;;;;;;;13.13;9.52;;;;;;;9.19;100.00;104092.00;5044827;28;20352;-70
2021/12/18 00:16:44;;;;;;;15.95;11.38;;;;;;;9.13;100.00;104096.38;5027789;28;20403;-70
2021/12/18 00:19:10;;;;;;;13.70;9.63;;;;;;;9.20;100.00;104088.22;5045537;28;20045;-70
2021/12/18 00:21:36;;;;;;;13.93;9.40;;;;;;;8.94;100.00;104083.28;5039751;28;20045;-69
2021/12/18 00:24:07;;;;;;;15.75;9.98;;;;;;;8.97;100.00;104091.13;5045040;28;20028;-71
2021/12/18 00:26:33;;;;;;;14.68;9.68;;;;;;;9.10;100.00;104082.19;5041932;28;20036;-70
2021/12/18 00:28:59;;;;;;;13.57;10.18;;;;;;;9.09;100.00;104088.72;5044766;28;20025;-70
2021/12/18 00:31:24;;;;;;;14.23;9.75;;;;;;;8.92;100.00;104083.47;5026094;28;20048;-71
2021/12/18 00:33:51;;;;;;;12.68;9.48;;;;;;;9.19;100.00;104086.53;5045189;28;20404;-71
2021/12/18 00:36:17;;;;;;;15.45;10.18;;;;;;;9.07;100.00;104088.03;5022958;28;20025;-71
2021/12/18 00:38:43;;;;;;;15.95;10.63;;;;;;;9.20;100.00;104075.38;5046505;28;20036;-72
2021/12/18 00:43:40;;;;;;;16.65;11.75;;;;;;;8.78;100.00;104079.72;5043808;28;20037;-71
2021/12/18 00:46:05;;;;;;;16.02;11.25;;;;;;;8.98;100.00;104073.63;5029789;28;20360;-71
2021/12/18 00:48:31;;;;;;;19.40;12.60;;;;;;;9.07;100.00;104080.72;5045265;28;20481;-71
2021/12/18 00:50:57;;;;;;;17.85;11.85;;;;;;;9.10;100.00;104074.84;5037698;28;20025;-70
2021/12/18 00:53:22;;;;;;;16.23;12.25;;;;;;;8.87;100.00;104068.66;5045677;28;20029;-71
2021/12/18 00:55:50;;;;;;;17.42;12.13;;;;;;;9.13;100.00;104081.81;5045125;28;20041;-72
2021/12/18 00:58:16;;;;;;;17.60;12.02;;;;;;;9.06;100.00;104072.69;5041805;28;20039;-69
2021/12/18 01:00:42;;;;;;;18.77;12.65;;;;;;;9.07;100.00;104072.50;5026453;28;20468;-70
2021/12/18 01:03:16;;;;;;;19.33;12.82;;;;;;;9.14;100.00;104067.94;5043890;28;20021;-71
2021/12/18 01:05:43;;;;;;;17.35;12.50;;;;;;;9.15;100.00;104066.91;5040459;28;20494;-71
2021/12/18 01:08:08;;;;;;;20.02;12.43;;;;;;;9.10;100.00;104072.13;5042288;28;20037;-70
2021/12/18 01:13:05;;;;;;;19.20;12.98;;;;;;;9.11;100.00;104078.44;5056709;28;20021;-70
2021/12/18 01:15:35;;;;;;;18.10;12.80;;;;;;;9.16;100.00;104068.56;5065098;28;20241;-71
2021/12/18 01:23:31;;;;;;;14.75;8.60;;;;;;;8.78;100.00;104068.75;5062677;28;20038;-71
2021/12/18 01:25:57;;;;;;;8.27;6.10;;;;;;;8.85;100.00;104068.84;5062371;28;20028;-70
2021/12/18 01:28:24;;;;;;;7.57;5.40;;;;;;;8.90;100.00;104068.28;5027408;28;20028;-71
2021/12/18 01:30:49;;;;;;;5.70;4.25;;;;;;;8.79;100.00;104069.63;5063644;28;20074;-71
2021/12/18 01:33:15;;;;;;;7.32;4.70;;;;;;;8.73;100.00;104068.50;5061555;28;20033;-72
2021/12/18 01:35:42;;;;;;;7.13;5.05;;;;;;;8.82;100.00;104067.34;5059379;28;20401;-71
2021/12/18 01:38:09;;;;;;;7.70;5.35;;;;;;;8.91;100.00;104070.81;5061356;28;20035;-71
2021/12/18 01:40:35;;;;;;;8.95;6.00;;;;;;;9.01;100.00;104067.78;5064171;28;20039;-71
2021/12/18 01:51:24;;;;;;;10.93;7.07;;;;;;;8.98;100.00;104085.44;5057038;28;20107;-71
2021/12/18 01:53:55;;;;;;;9.00;6.90;;;;;;;8.96;100.00;104076.56;5063663;28;20035;-70
2021/12/18 01:56:23;;;;;;;9.13;6.57;;;;;;;9.05;100.00;104077.31;5061359;28;20066;-72
2021/12/18 01:58:48;;;;;;;11.18;7.32;;;;;;;9.10;100.00;104085.81;5061040;28;20167;-71
2021/12/18 02:01:15;;;;;;;9.88;6.38;;;;;;;8.94;100.00;104081.38;5061431;28;20123;-71
2021/12/18 02:03:41;;;;;;;8.75;6.38;;;;;;;8.62;100.00;104080.78;5065056;28;20024;-70
2021/12/18 02:06:07;;;;;;;6.85;5.25;;;;;;;8.97;100.00;104080.16;5055931;28;20033;-71
2021/12/18 02:08:35;;;;;;;6.60;4.75;;;;;;;8.82;100.00;104075.56;5061739;28;20056;-71
2021/12/18 02:11:47;;;;;;;6.18;4.18;;;;;;;8.49;100.00;104077.00;5060859;28;20036;-71
2021/12/18 02:22:10;;;;;;;5.65;3.63;;;;;;;8.80;100.00;104058.47;5058378;28;20059;-71
2021/12/18 02:24:36;;;;;;;4.22;3.10;;;;;;;8.72;100.00;104066.78;5061572;28;20035;-71
2021/12/18 02:27:02;;;;;;;4.25;2.92;;;;;;;8.89;100.00;104066.59;5057562;28;20028;-71
2021/12/18 02:29:31;;;;;;;6.30;4.05;;;;;;;8.62;100.00;104061.63;5060937;28;20039;-71
2021/12/18 02:31:56;;;;;;;5.90;3.47;;;;;;;8.77;100.00;104052.53;5059689;28;20398;-70
2021/12/18 02:34:28;;;;;;;4.28;3.47;;;;;;;8.89;100.00;104055.66;5060235;28;20044;-71
2021/12/18 02:37:00;;;;;;;5.07;3.97;;;;;;;8.69;100.00;104053.50;5059124;28;20478;-71
2021/12/18 02:42:18;;;;;;;5.53;4.00;;;;;;;8.36;100.00;104058.47;5056116;28;20261;-72
2021/12/18 02:44:44;;;;;;;6.07;4.25;;;;;;;8.52;100.00;104057.47;5062110;28;20486;-71
2021/12/18 02:47:12;;;;;;;6.57;4.60;;;;;;;8.52;100.00;104062.94;5061688;28;20150;-72
2021/12/18 02:49:43;;;;;;;6.28;4.45;;;;;;;8.71;100.00;104056.06;5060848;28;20092;-71
2021/12/18 02:52:08;;;;;;;6.07;4.88;;;;;;;8.65;100.00;104049.44;5057366;28;20103;-71
2021/12/18 02:54:37;;;;;;;7.85;5.43;;;;;;;8.89;100.00;104053.75;5063031;28;20128;-70
2021/12/18 02:57:04;;;;;;;6.70;4.97;;;;;;;8.80;100.00;104043.94;5057760;28;20017;-71
2021/12/18 02:59:40;;;;;;;7.38;4.97;;;;;;;8.79;100.00;104045.00;5029075;28;20571;-70
2021/12/18 03:02:05;;;;;;;7.00;4.68;;;;;;;8.81;100.00;104045.66;5060865;28;20054;-71
2021/12/18 03:04:34;;;;;;;6.88;5.03;;;;;;;8.67;100.00;104041.06;5060127;28;20028;-71
2021/12/18 03:07:04;;;;;;;7.78;4.97;;;;;;;8.65;100.00;104041.25;5059943;28;20025;-72
2021/12/18 03:25:38;;;;;;;9.57;5.95;;;;;;;8.78;100.00;104035.09;5042899;28;20040;-70
2021/12/18 03:28:06;;;;;;;8.57;5.78;;;;;;;8.63;100.00;104037.88;5040810;28;21266;-70
2021/12/18 03:30:33;;;;;;;9.77;6.47;;;;;;;8.70;100.00;104037.94;5040648;28;20032;-71
2021/12/18 03:32:58;;;;;;;10.35;6.45;;;;;;;8.63;100.00;104029.66;5043594;28;20063;-71
2021/12/18 03:35:24;;;;;;;9.77;6.90;;;;;;;8.64;100.00;104037.66;5038548;28;20110;-71
2021/12/18 03:37:50;;;;;;;10.43;6.95;;;;;;;8.64;100.00;104034.94;5043395;28;20033;-71
2021/12/18 03:40:19;;;;;;;10.80;6.68;;;;;;;8.41;100.00;104039.63;5040153;28;20035;-71
2021/12/18 03:42:45;;;;;;;11.07;7.30;;;;;;;8.55;100.00;104030.59;5043401;28;20029;-71
2021/12/18 03:45:12;;;;;;;10.50;6.88;;;;;;;8.73;100.00;104032.09;5043897;28;20083;-71
2021/12/18 03:47:38;;;;;;;12.68;7.78;;;;;;;8.49;100.00;104030.50;5046270;28;20031;-70
2021/12/18 03:50:11;;;;;;;11.02;7.45;;;;;;;8.41;100.00;104026.81;5044840;28;20048;-70
2021/12/18 03:52:37;;;;;;;13.00;7.30;;;;;;;8.42;100.00;104030.41;5028329;28;20033;-71
2021/12/18 03:55:08;;;;;;;15.38;8.23;;;;;;;8.22;100.00;104024.66;5046498;28;20090;-71
2021/12/18 03:57:34;;;;;;;16.95;7.78;;;;;;;8.06;100.00;104025.69;5026082;28;20507;-71
2021/12/18 03:59:59;;;;;;;23.40;7.47;;;;;;;7.90;100.00;104032.16;5046283;28;20116;-70
2021/12/18 04:02:25;;;;;;;13.57;7.80;;;;;;;8.36;100.00;104020.22;5043110;28;20040;-71
2021/12/18 04:04:51;;;;;;;18.30;8.52;;;;;;;8.20;100.00;104022.09;5044677;28;20215;-71
2021/12/18 04:07:16;;;;;;;16.58;8.38;;;;;;;8.10;100.00;104016.91;5041943;28;20033;-71
2021/12/18 04:09:42;;;;;;;17.00;8.75;;;;;;;8.24;100.00;104023.41;5044853;28;20025;-71
2021/12/18 04:12:09;;;;;;;20.15;9.45;;;;;;;8.51;100.00;104012.88;5043630;28;20090;-69
2021/12/18 04:14:35;;;;;;;22.05;9.32;;;;;;;8.38;100.00;104026.31;5027612;28;20064;-71
2021/12/18 04:17:01;;;;;;;22.17;9.85;;;;;;;8.24;100.00;104025.31;5044698;28;20530;-71
2021/12/18 04:19:27;;;;;;;20.85;9.50;;;;;;;8.51;100.00;104018.38;5041709;28;20565;-70
2021/12/18 04:21:52;;;;;;;21.95;10.60;;;;;;;8.37;100.00;104025.50;5043966;28;20045;-71
2021/12/18 04:24:18;;;;;;;20.35;9.45;;;;;;;8.58;100.00;104018.44;5043599;28;20065;-71
2021/12/18 04:26:44;;;;;;;17.02;9.27;;;;;;;8.41;100.00;104024.09;5008297;28;20049;-71
2021/12/18 04:29:10;;;;;;;23.63;10.13;;;;;;;8.45;100.00;104030.88;5043514;28;20060;-71
2021/12/18 04:31:37;;;;;;;24.42;9.98;;;;;;;8.56;100.00;104021.38;5009251;28;20037;-70
2021/12/18 04:34:04;;;;;;;20.08;9.98;;;;;;;8.61;100.00;104024.38;5046363;28;20086;-71
2021/12/18 04:36:29;;;;;;;28.48;11.20;;;;;;;8.52;100.00;104033.72;5040173;28;20620;-72
2021/12/18 04:38:55;;;;;;;31.08;10.88;;;;;;;8.60;100.00;104030.03;5046459;28;20123;-71
2021/12/18 04:41:24;;;;;;;43.55;11.25;;;;;;;8.39;100.00;104042.53;5041050;28;20036;-71
2021/12/18 04:43:51;;;;;;;30.67;12.07;;;;;;;8.52;100.00;104038.34;5041361;28;20090;-71
2021/12/18 04:46:17;;;;;;;35.53;11.30;;;;;;;8.23;100.00;104042.72;5043063;28;20061;-70
2021/12/18 04:48:42;;;;;;;24.83;9.63;;;;;;;8.36;100.00;104042.94;5046628;28;20071;-71
2021/12/18 04:51:07;;;;;;;23.73;9.23;;;;;;;8.17;100.00;104038.03;5038818;28;20107;-71
2021/12/18 04:53:33;;;;;;;32.78;10.77;;;;;;;8.04;100.00;104039.53;5041362;28;20647;-70
2021/12/18 04:55:58;;;;;;;26.08;9.10;;;;;;;8.06;100.00;104040.19;5043354;28;20446;-72
2021/12/18 04:58:23;;;;;;;26.00;9.35;;;;;;;7.77;100.00;104045.59;5040976;28;20125;-71
2021/12/18 05:00:49;;;;;;;24.35;8.73;;;;;;;7.84;100.00;104038.38;5043338;28;20108;-71
2021/12/18 05:03:18;;;;;;;20.85;8.10;;;;;;;7.95;100.00;104035.16;5044501;28;20050;-70
2021/12/18 05:05:44;;;;;;;27.63;8.32;;;;;;;7.58;100.00;104045.09;5042800;28;20021;-72
2021/12/18 05:08:09;;;;;;;70.22;11.75;;;;;;;7.83;100.00;104042.13;5044601;28;20033;-72
2021/12/18 05:10:36;;;;;;;34.90;11.25;;;;;;;7.99;100.00;104049.31;5025244;28;20056;-71
2021/12/18 05:13:02;;;;;;;48.03;12.07;;;;;;;7.69;100.00;104054.69;5041881;28;20024;-70
2021/12/18 05:15:27;;;;;;;70.25;13.65;;;;;;;7.80;100.00;104051.53;5043653;28;20103;-72
2021/12/18 05:17:53;;;;;;;30.75;12.88;;;;;;;7.96;100.00;104053.28;5050466;28;20045;-72
2021/12/18 05:20:18;;;;;;;40.00;13.40;;;;;;;7.93;100.00;104050.06;5059563;28;20032;-71
2021/12/18 05:22:44;;;;;;;37.45;13.38;;;;;;;8.21;100.00;104053.84;5030224;28;20043;-71
2021/12/18 05:25:09;;;;;;;59.17;14.65;;;;;;;8.12;100.00;104049.53;5064040;28;20446;-71
2021/12/18 05:27:36;;;;;;;35.22;12.43;;;;;;;8.23;100.00;104053.66;5060470;28;20044;-71
2021/12/18 05:30:07;;;;;;;55.22;13.23;;;;;;;8.04;100.00;104044.16;5062568;28;20036;-71
2021/12/18 05:32:33;;;;;;;47.30;12.07;;;;;;;7.57;100.00;104053.47;5050366;28;20367;-72
2021/12/18 05:34:58;;;;;;;40.67;10.10;;;;;;;7.86;100.00;104052.69;5023161;28;20128;-71
2021/12/18 05:40:09;;;;;;;49.55;10.85;;;;;;;8.12;100.00;104051.38;5063367;28;20370;-72
2021/12/18 05:42:34;;;;;;;39.90;10.77;;;;;;;8.17;100.00;104043.50;5058097;28;20075;-72
2021/12/18 05:45:00;;;;;;;33.40;10.32;;;;;;;8.15;100.00;104051.88;5064368;28;20064;-71
2021/12/18 05:47:25;;;;;;;39.20;11.40;;;;;;;8.29;100.00;104050.19;5062977;28;20478;-73
2021/12/18 05:49:50;;;;;;;42.13;11.13;;;;;;;8.07;100.00;104046.50;5043845;28;20368;-71
2021/12/18 05:52:17;;;;;;;35.17;9.32;;;;;;;7.64;100.00;104055.28;5060127;28;20115;-71
2021/12/18 05:54:42;;;;;;;37.30;10.25;;;;;;;7.58;100.00;104056.00;5029598;28;20429;-71
2021/12/18 05:57:10;;;;;;;39.85;8.50;;;;;;;7.84;100.00;104047.41;5059790;28;20021;-71
2021/12/18 05:59:35;;;;;;;41.15;9.88;;;;;;;7.54;100.00;104051.94;5061125;28;20040;-70
2021/12/18 06:02:01;;;;;;;39.40;8.55;;;;;;;7.61;100.00;104050.19;5063529;28;20054;-71
2021/12/18 06:04:28;;;;;;;26.02;6.72;;;;;;;7.49;100.00;104043.44;5059685;28;20255;-71
2021/12/18 06:07:03;;;;;;;23.90;7.53;;;;;;;7.37;100.00;104048.47;5061126;28;20035;-70
2021/12/18 06:09:28;;;;;;;40.85;7.90;;;;;;;7.51;100.00;104052.28;5061154;28;20498;-71
2021/12/18 06:11:54;;;;;;;21.50;6.22;;;;;;;7.62;100.00;104046.41;5059950;28;20067;-71
2021/12/18 06:14:20;;;;;;;22.90;6.60;;;;;;;7.71;100.00;104045.31;5062002;28;20201;-71
2021/12/18 06:16:46;;;;;;;25.15;6.32;;;;;;;7.80;100.00;104045.22;5029005;28;20044;-71
2021/12/18 06:19:11;;;;;;;19.95;6.07;;;;;;;7.85;100.00;104046.34;5064459;28;20050;-71
2021/12/18 06:21:36;;;;;;;31.13;6.00;;;;;;;7.53;100.00;104042.91;5058775;28;20036;-71
2021/12/18 06:24:02;;;;;;;28.88;6.65;;;;;;;7.24;100.00;104045.50;5046846;28;20033;-71
2021/12/18 06:26:29;;;;;;;19.52;6.13;;;;;;;7.36;100.00;104042.19;5060344;28;20513;-70
2021/12/18 06:28:55;;;;;;;25.30;7.18;;;;;;;7.75;100.00;104045.78;5029990;28;20048;-70
2021/12/18 06:31:22;;;;;;;19.73;6.68;;;;;;;7.79;100.00;104043.53;5062808;28;20032;-71
2021/12/18 06:33:48;;;;;;;22.67;5.72;;;;;;;7.34;100.00;104046.13;5046048;28;20036;-70
2021/12/18 06:36:13;;;;;;;17.83;5.95;;;;;;;7.30;100.00;104045.63;5059370;28;20383;-70
2021/12/18 06:38:39;;;;;;;24.65;5.53;;;;;;;7.68;100.00;104050.28;5061702;28;20067;-71
2021/12/18 06:41:04;;;;;;;22.55;5.97;;;;;;;7.80;100.00;104042.50;5061856;28;20482;-71
2021/12/18 06:43:29;;;;;;;34.13;5.28;;;;;;;7.52;100.00;104034.88;5058507;28;20056;-70
2021/12/18 06:45:55;;;;;;;31.25;5.85;;;;;;;7.43;100.00;104034.13;5064096;28;20029;-71
2021/12/18 06:48:21;;;;;;;50.72;5.90;;;;;;;7.04;100.00;104045.13;5063794;28;20116;-71
2021/12/18 06:50:46;;;;;;;31.40;6.28;;;;;;;7.06;100.00;104040.34;5041870;28;20713;-71
2021/12/18 06:53:12;;;;;;;32.10;5.47;;;;;;;7.47;100.00;104048.25;5064376;28;20036;-72
2021/12/18 06:55:37;;;;;;;28.05;4.38;;;;;;;7.37;100.00;104040.28;5042397;28;20573;-71
2021/12/18 06:58:03;;;;;;;31.38;5.30;;;;;;;7.04;100.00;104040.53;5060493;28;20491;-70
2021/12/18 07:00:29;;;;;;;54.17;5.22;;;;;;;7.07;100.00;104039.31;5043245;28;20036;-71
2021/12/18 07:02:55;;;;;;;35.75;5.18;;;;;;;7.07;100.00;104050.25;5061934;28;20390;-71
2021/12/18 07:05:23;;;;;;;13.63;4.63;;;;;;;7.35;100.00;104051.38;5058326;28;20032;-71
2021/12/18 07:07:50;;;;;;;21.08;4.63;;;;;;;7.19;100.00;104051.50;5045810;28;20025;-71
2021/12/18 07:10:16;;;;;;;20.33;4.82;;;;;;;6.81;100.00;104056.84;5044678;28;20123;-71
2021/12/18 07:12:41;;;;;;;19.17;5.18;;;;;;;7.08;100.00;104060.94;5058262;28;20258;-72
2021/12/18 07:15:10;;;;;;;21.38;4.22;;;;;;;7.18;100.00;104053.41;5063257;28;20074;-71
2021/12/18 07:17:35;;;;;;;21.98;4.47;;;;;;;7.17;100.00;104050.84;5062341;28;20052;-72
2021/12/18 07:20:01;;;;;;;21.58;4.32;;;;;;;6.93;100.00;104047.22;5065019;28;20359;-71
2021/12/18 07:22:27;;;;;;;21.00;4.38;;;;;;;7.09;100.00;104057.19;5062854;28;20104;-71
2021/12/18 07:24:52;;;;;;;14.75;4.35;;;;;;;7.09;100.00;104053.63;5067511;28;20692;-71
2021/12/18 07:27:18;;;;;;;11.18;4.47;;;;;;;7.21;100.00;104043.97;5062852;28;20603;-72
2021/12/18 07:29:43;;;;;;;13.30;4.20;;;;;;;7.25;100.00;104050.78;5062781;28;20041;-72
2021/12/18 07:32:09;;;;;;;11.73;4.32;;;;;;;6.73;100.00;104057.72;5057746;28;20040;-71
2021/12/18 07:34:35;;;;;;;12.63;4.50;;;;;;;6.95;100.00;104050.63;5044688;28;20369;-71
2021/12/18 07:37:00;;;;;;;10.38;4.13;;;;;;;7.06;100.00;104048.53;5042219;28;20037;-71
2021/12/18 07:39:27;;;;;;;15.25;4.20;;;;;;;6.96;100.00;104046.88;5044497;28;20028;-71
2021/12/18 07:41:53;;;;;;;15.00;3.97;;;;;;;6.96;100.00;104049.59;5042288;28;20606;-71
2021/12/18 07:44:19;;;;;;;10.65;3.65;;;;;;;6.85;100.00;104054.59;5043524;28;20277;-71
2021/12/18 07:46:44;;;;;;;15.27;4.82;;;;;;;6.97;100.00;104054.03;5025934;28;20032;-72
2021/12/18 07:49:09;;;;;;;22.83;5.75;;;;;;;6.91;100.00;104051.16;5044009;28;20458;-71
2021/12/18 07:51:36;;;;;;;19.95;5.50;;;;;;;7.01;100.00;104054.50;5038367;28;20467;-71
2021/12/18 07:54:03;;;;;;;22.05;6.25;;;;;;;7.03;100.00;104055.19;5043891;28;20083;-71
2021/12/18 07:56:30;;;;;;;16.48;5.47;;;;;;;7.19;100.00;104051.50;5045174;28;20144;-70
2021/12/18 07:58:55;;;;;;;18.35;5.35;;;;;;;7.13;100.00;104058.56;5045569;28;20439;-71
2021/12/18 08:01:21;;;;;;;20.42;5.30;;;;;;;6.79;100.00;104051.56;5047300;28;20048;-71
2021/12/18 08:03:47;;;;;;;15.10;4.38;;;;;;;6.93;100.00;104047.22;5041582;28;20037;-71
2021/12/18 08:06:12;;;;;;;15.32;4.32;;;;;;;7.05;100.00;104052.28;5041834;28;20033;-71
2021/12/18 08:08:38;;;;;;;16.20;4.63;;;;;;;7.06;100.00;104046.63;5043774;28;20101;-71
2021/12/18 08:11:04;;;;;;;12.80;4.60;;;;;;;7.01;100.00;104048.22;5008226;28;20055;-71
2021/12/18 08:13:30;;;;;;;15.40;4.72;;;;;;;7.13;100.00;104053.09;5041893;28;20295;-69
2021/12/18 08:15:56;;;;;;;12.35;4.22;;;;;;;7.08;100.00;104057.38;5010876;28;20033;-71
2021/12/18 08:18:21;;;;;;;13.35;3.95;;;;;;;6.97;100.00;104062.22;5043266;28;20411;-72
2021/12/18 08:20:47;;;;;;;20.02;4.70;;;;;;;7.21;100.00;104060.34;5039716;28;20064;-71
2021/12/18 08:23:13;;;;;;;23.98;5.13;;;;;;;7.14;100.00;104054.78;5044928;28;20104;-70
2021/12/18 08:25:39;;;;;;;20.02;4.65;;;;;;;7.29;100.00;104063.03;5042817;28;20052;-70
2021/12/18 08:28:07;;;;;;;29.27;5.32;;;;;;;7.17;100.00;104061.75;5041679;28;20032;-71
2021/12/18 08:30:35;;;;;;;42.50;6.60;;;;;;;7.19;100.00;104067.88;5039880;28;20336;-71
2021/12/18 08:33:01;;;;;;;17.90;5.45;;;;;;;7.39;100.00;104067.41;5044824;28;20112;-71
2021/12/18 08:35:29;;;;;;;26.05;5.95;;;;;;;7.38;100.00;104058.38;5049260;28;20135;-71
2021/12/18 08:37:55;;;;;;;16.23;5.55;;;;;;;7.33;100.00;104069.84;5048028;28;20024;-73
2021/12/18 08:40:22;;;;;;;17.42;5.75;;;;;;;7.36;100.00;104064.03;5062334;28;20024;-70
2021/12/18 08:42:47;;;;;;;26.17;5.53;;;;;;;7.28;100.00;104066.81;5050335;28;20040;-72
2021/12/18 08:45:14;;;;;;;32.15;6.95;;;;;;;7.36;100.00;104074.94;5046225;28;20041;-71
2021/12/18 08:47:39;;;;;;;38.30;6.05;;;;;;;7.48;100.00;104066.34;5045356;28;20037;-72
2021/12/18 08:50:09;;;;;;;60.05;7.45;;;;;;;7.39;100.00;104060.06;5049188;28;20033;-72
2021/12/18 08:52:34;;;;;;;25.08;5.70;;;;;;;7.46;100.00;104062.91;5041046;28;20103;-72
2021/12/18 08:55:00;;;;;;;15.48;6.10;;;;;;;7.36;100.00;104061.28;5040510;28;20464;-70
2021/12/18 08:57:27;;;;;;;22.92;6.78;;;;;;;7.54;100.00;104060.13;5043159;28;20039;-71
2021/12/18 08:59:52;;;;;;;19.23;5.57;;;;;;;6.87;100.00;104061.59;5039967;28;20044;-71
2021/12/18 09:02:17;;;;;;;28.00;5.90;;;;;;;6.78;100.00;104068.09;5043798;28;20076;-71
2021/12/18 09:04:43;;;;;;;29.35;5.72;;;;;;;6.66;100.00;104066.78;5042370;28;20526;-72
2021/12/18 09:07:09;;;;;;;13.05;4.65;;;;;;;6.81;100.00;104067.75;5063929;28;20134;-71
2021/12/18 09:09:35;;;;;;;12.57;5.70;;;;;;;7.04;100.00;104069.69;5064590;28;20124;-72
2021/12/18 09:12:00;;;;;;;15.10;5.68;;;;;;;6.91;100.00;104073.84;5045407;28;20024;-72
2021/12/18 09:14:25;;;;;;;14.05;5.57;;;;;;;7.02;100.00;104066.25;5064469;28;20036;-71
2021/12/18 09:16:52;;;;;;;19.17;6.00;;;;;;;7.30;100.00;104064.75;5061724;28;20839;-71
2021/12/18 09:19:19;;;;;;;22.05;6.60;;;;;;;7.16;100.00;104071.81;5047010;28;20031;-71
2021/12/18 09:21:46;;;;;;;56.00;7.80;;;;;;;6.72;100.00;104066.06;5058057;28;20032;-71
2021/12/18 09:24:12;;;;;;;40.60;8.82;;;;;;;6.95;100.00;104058.81;5064467;28;20039;-70
2021/12/18 09:26:37;;;;;;;55.70;8.65;;;;;;;7.05;100.00;104061.31;5059976;28;20028;-71
2021/12/18 09:29:03;;;;;;;28.38;8.30;;;;;;;7.08;100.00;104052.75;5062061;28;20029;-71
2021/12/18 09:31:29;;;;;;;80.57;8.82;;;;;;;6.59;100.00;104061.19;5061713;28;20032;-71
2021/12/18 09:33:55;;;;;;;75.30;8.88;;;;;;;6.47;100.00;104058.00;5061546;28;20098;-72
2021/12/18 09:36:20;;;;;;;28.00;8.07;;;;;;;6.93;100.00;104062.75;5057890;28;20159;-71
2021/12/18 09:38:46;;;;;;;57.17;8.27;;;;;;;6.65;100.00;104060.47;5043996;28;20028;-71
2021/12/18 09:41:12;;;;;;;46.15;7.50;;;;;;;6.74;100.00;104061.28;5063392;28;20031;-72
2021/12/18 09:43:38;;;;;;;27.30;7.28;;;;;;;7.24;100.00;104064.63;5059497;28;20124;-72
2021/12/18 09:46:12;;;;;;;31.30;7.07;;;;;;;7.43;100.00;104057.81;5062747;28;20466;-71
2021/12/18 09:48:40;;;;;;;35.25;7.38;;;;;;;7.72;100.00;104057.94;5044565;28;20029;-71
2021/12/18 09:51:12;;;;;;;25.70;7.28;;;;;;;7.86;100.00;104059.00;5059538;28;20044;-72
2021/12/18 09:53:39;;;;;;;26.10;8.00;;;;;;;7.82;100.00;104054.09;5062748;28;20020;-70
2021/12/18 09:56:05;;;;;;;41.75;7.10;;;;;;;7.67;100.00;104060.38;5063506;28;20387;-72
2021/12/18 09:58:31;;;;;;;32.20;8.95;;;;;;;7.16;100.00;104051.88;5062142;28;20475;-71
2021/12/18 10:00:57;;;;;;;27.17;6.82;;;;;;;6.98;100.00;104047.56;5060911;28;20583;-71
2021/12/18 10:03:48;;;;;;;20.45;6.70;;;;;;;6.67;100.00;104049.41;5063146;28;20561;-71
2021/12/18 10:06:37;;;;;;;30.05;7.15;;;;;;;6.90;100.00;104044.00;5058170;28;20031;-72
2021/12/18 10:09:08;;;;;;;34.20;8.43;;;;;;;6.64;100.00;104045.19;5061496;28;20043;-71
2021/12/18 10:11:45;;;;;;;21.10;7.60;;;;;;;7.22;100.00;104050.31;5058574;28;20324;-72
2021/12/18 10:14:11;;;;;;;36.60;8.93;;;;;;;7.20;100.00;104035.97;5043106;28;20525;-71
2021/12/18 10:16:46;;;;;;;31.38;8.52;;;;;;;7.35;100.00;104048.66;5043034;28;20049;-71
2021/12/18 10:19:35;;;;;;;26.65;8.30;;;;;;;7.47;100.00;104043.63;5043961;28;20201;-71
2021/12/18 10:22:05;;;;;;;37.72;9.18;;;;;;;7.23;100.00;104044.66;5058120;28;20094;-71
2021/12/18 10:24:32;;;;;;;37.58;8.20;;;;;;;7.10;100.00;104049.84;5063480;28;20035;-72
2021/12/18 10:26:58;;;;;;;22.08;7.68;;;;;;;7.18;100.00;104047.94;5059469;28;20024;-71
2021/12/18 10:29:35;;;;;;;26.58;7.60;;;;;;;7.14;100.00;104056.66;5060939;28;20078;-71
2021/12/18 10:32:10;;;;;;;31.88;7.03;;;;;;;7.44;100.00;104054.06;5061639;28;20337;-71
2021/12/18 10:34:38;;;;;;;86.82;9.88;;;;;;;7.16;100.00;104055.44;5061738;28;20446;-71
2021/12/18 10:37:24;;;;;;;61.85;8.73;;;;;;;6.98;100.00;104050.28;5040969;28;20402;-71
2021/12/18 10:40:10;;;;;;;49.10;8.32;;;;;;;7.44;100.00;104054.06;5062359;28;20032;-71
2021/12/18 10:42:46;;;;;;;67.53;10.60;;;;;;;7.25;100.00;104047.22;5061022;28;20108;-71
2021/12/18 10:45:22;;;;;;;66.70;9.65;;;;;;;7.12;100.00;104050.53;5062627;28;20024;-71
2021/12/18 10:48:00;;;;;;;93.68;11.07;;;;;;;7.31;100.00;104039.16;5061642;28;20039;-72
2021/12/18 10:50:28;;;;;;;37.10;9.65;;;;;;;7.56;100.00;104047.16;5058146;28;20032;-72
2021/12/18 10:52:57;;;;;;;31.45;11.75;;;;;;;7.62;100.00;104038.19;5061237;28;20104;-72
2021/12/18 10:55:30;;;;;;;46.65;14.75;;;;;;;7.37;100.00;104040.28;5062909;28;20025;-71
2021/12/18 10:57:56;;;;;;;39.55;13.65;;;;;;;7.41;100.00;104040.78;5058275;28;20029;-71
2021/12/18 11:00:42;;;;;;;42.20;10.65;;;;;;;7.25;100.00;104034.41;5062689;28;20051;-71
2021/12/18 11:03:21;;;;;;;31.27;9.98;;;;;;;7.02;100.00;104041.72;5044845;28;20119;-71
2021/12/18 11:06:18;;;;;;;46.97;10.88;;;;;;;7.13;100.00;104049.50;5056993;28;20024;-69
2021/12/18 11:08:52;;;;;;;35.15;10.32;;;;;;;7.38;100.00;104038.41;5060532;28;20091;-71
2021/12/18 11:13:58;;;;;;;26.20;10.05;;;;;;;7.35;100.00;104035.00;5061361;28;20123;-71
2021/12/18 11:16:27;;;;;;;47.83;11.00;;;;;;;7.10;100.00;104036.19;5048070;28;20053;-71
2021/12/18 11:18:54;;;;;;;37.42;10.23;;;;;;;7.46;100.00;104033.75;5040676;28;20143;-70
2021/12/18 11:21:19;;;;;;;40.10;10.70;;;;;;;7.36;100.00;104030.41;5038217;28;20033;-71
2021/12/18 11:23:54;;;;;;;20.52;9.48;;;;;;;7.50;100.00;104031.50;5038596;28;20079;-71
2021/12/18 11:26:23;;;;;;;26.60;11.35;;;;;;;7.58;100.00;104027.84;5039198;28;20120;-72
2021/12/18 11:28:51;;;;;;;23.10;9.95;;;;;;;7.81;100.00;104025.94;5035888;28;20047;-70
2021/12/18 11:31:18;;;;;;;35.53;10.07;;;;;;;7.56;100.00;104025.31;5041086;28;20501;-72
2021/12/18 11:33:44;;;;;;;20.13;9.20;;;;;;;7.67;100.00;104024.88;5043004;28;20028;-71
2021/12/18 11:36:10;;;;;;;18.23;9.98;;;;;;;7.80;100.00;104018.75;5036032;28;20487;-70
2021/12/18 11:38:42;;;;;;;31.38;10.93;;;;;;;7.78;100.00;104022.72;5042300;28;20029;-71
2021/12/18 11:41:18;;;;;;;16.88;10.25;;;;;;;7.75;100.00;104017.63;5007486;28;20037;-71
2021/12/18 11:43:47;;;;;;;26.10;10.45;;;;;;;7.47;100.00;104016.31;5038897;28;20036;-72
2021/12/18 11:46:30;;;;;;;32.63;9.10;;;;;;;7.76;100.00;104002.94;5042186;28;20028;-73
2021/12/18 11:49:00;;;;;;;;;;;;;;;7.37;100.00;104015.72;5043357;28;20078;-72
2021/12/18 11:51:26;;;;;;;26.33;8.65;;;;;;;7.39;100.00;104007.34;5035616;28;20266;-73
2021/12/18 11:53:52;;;;;;;21.58;8.20;;;;;;;7.10;100.00;104008.91;5041014;28;20036;-72
2021/12/18 11:56:18;;;;;;;14.52;8.40;;;;;;;7.60;100.00;104010.25;5040988;28;20202;-73
2021/12/18 11:58:46;;;;;;;15.23;7.72;;;;;;;7.40;100.00;104003.59;5041076;28;20143;-70
2021/12/18 12:01:21;;;;;;;16.45;8.20;;;;;;;7.41;100.00;103995.25;5023003;28;20105;-73
2021/12/18 12:03:49;;;;;;;14.45;7.75;;;;;;;7.81;100.00;103993.16;5045593;28;20025;-72
2021/12/18 12:06:31;;;;;;;20.10;8.40;;;;;;;7.67;100.00;104004.88;5040415;28;20104;-73
2021/12/18 12:11:52;;;;;;;;;;;;;;;7.59;100.00;103994.91;5042058;28;20791;-72
2021/12/18 12:14:20;;;;;;;15.02;8.10;;;;;;;7.54;100.00;103987.25;5065312;28;19916;-72